createdAt,value
2023-12-18T00:02:19.568Z,86.72
2023-12-18T00:05:22.237Z,87.33
2023-12-18T00:08:24.922Z,87.91
2023-12-18T00:11:27.605Z,88.17
2023-12-18T00:14:30.216Z,89.05
2023-12-18T00:17:33.081Z,89.55
2023-12-18T00:20:35.800Z,89.62
2023-12-18T00:23:38.442Z,90.02
2023-12-18T00:26:41.191Z,90.54
2023-12-18T00:29:43.850Z,90.83
2023-12-18T00:32:46.565Z,91.08
2023-12-18T00:35:49.257Z,90.81
2023-12-18T00:38:51.940Z,90.35
2023-12-18T00:41:54.619Z,90.88
2023-12-18T00:44:57.295Z,90.55
2023-12-18T00:48:00.083Z,90.59
2023-12-18T00:51:02.918Z,90.75
2023-12-18T00:54:05.667Z,90.68
2023-12-18T00:57:08.410Z,90.74
2023-12-18T01:00:11.706Z,90.64
2023-12-18T01:03:14.621Z,91.09
2023-12-18T01:06:17.613Z,91.18
2023-12-18T01:09:20.274Z,90.97
2023-12-18T01:12:22.927Z,91.14
2023-12-18T01:15:25.877Z,90.32
2023-12-18T01:18:28.681Z,90.89
2023-12-18T01:21:31.634Z,90.86
2023-12-18T01:24:34.469Z,90.96
2023-12-18T01:27:37.436Z,91.88
2023-12-18T01:30:40.379Z,92.00
2023-12-18T01:33:43.193Z,92.13
2023-12-18T01:36:45.982Z,91.86
2023-12-18T01:39:48.642Z,91.75
2023-12-18T01:42:51.322Z,92.04
2023-12-18T01:45:58.943Z,92.66
2023-12-18T01:49:02.655Z,92.44
2023-12-18T01:52:06.331Z,92.86
2023-12-18T01:55:11.503Z,93.32
2023-12-18T01:58:15.039Z,93.07
2023-12-18T02:01:17.982Z,92.76
2023-12-18T02:04:21.324Z,93.14
2023-12-18T02:07:25.074Z,92.18
2023-12-18T02:10:28.252Z,92.62
2023-12-18T02:13:30.906Z,93.17
2023-12-18T02:16:33.916Z,92.87
2023-12-18T02:19:36.896Z,92.90
2023-12-18T02:22:48.563Z,92.27
2023-12-18T02:25:51.928Z,92.48
2023-12-18T02:28:54.676Z,92.39
2023-12-18T02:31:58.780Z,92.13
2023-12-18T02:35:01.809Z,92.61
2023-12-18T02:38:04.905Z,92.79
2023-12-18T02:41:07.548Z,93.27
2023-12-18T02:44:10.147Z,93.51
2023-12-18T02:47:13.049Z,93.47
2023-12-18T02:50:16.797Z,93.55
2023-12-18T02:53:19.736Z,93.57
2023-12-18T02:56:22.432Z,93.42
2023-12-18T02:59:25.121Z,93.44
2023-12-18T03:02:27.760Z,93.27
2023-12-18T03:05:30.774Z,93.86
2023-12-18T03:08:33.727Z,93.39
2023-12-18T03:11:36.646Z,94.36
2023-12-18T03:14:39.524Z,94.31
2023-12-18T03:17:42.530Z,94.18
2023-12-18T03:20:45.583Z,94.46
2023-12-18T03:23:48.499Z,94.83
2023-12-18T03:26:51.367Z,94.90
2023-12-18T03:29:54.307Z,95.71
2023-12-18T03:32:57.449Z,96.41
2023-12-18T03:36:00.386Z,97.03
2023-12-18T03:39:03.418Z,97.25
2023-12-18T03:42:06.431Z,97.33
2023-12-18T03:45:10.050Z,97.13
2023-12-18T03:48:12.964Z,97.10
2023-12-18T03:51:15.759Z,97.25
2023-12-18T03:54:18.375Z,96.74
2023-12-18T03:57:21.087Z,96.98
2023-12-18T04:00:23.761Z,96.97
2023-12-18T04:03:26.456Z,96.48
2023-12-18T04:06:29.581Z,96.81
2023-12-18T04:09:32.303Z,97.00
2023-12-18T04:12:35.108Z,96.49
2023-12-18T04:15:37.835Z,96.19
2023-12-18T04:18:40.781Z,95.79
2023-12-18T04:21:43.584Z,95.48
2023-12-18T04:24:46.301Z,95.08
2023-12-18T04:27:49.176Z,95.15
2023-12-18T04:30:52.010Z,95.78
2023-12-18T04:33:55.006Z,95.01
2023-12-18T04:36:59.507Z,95.61
2023-12-18T04:40:04.968Z,95.67
2023-12-18T04:43:07.735Z,95.57
2023-12-18T04:46:10.370Z,95.88
2023-12-18T04:49:14.456Z,96.15
2023-12-18T04:52:17.181Z,95.55
2023-12-18T04:55:19.799Z,95.50
2023-12-18T04:58:22.444Z,95.55
2023-12-18T05:01:25.094Z,96.74
2023-12-18T05:04:27.825Z,97.40
2023-12-18T05:07:30.567Z,97.48
2023-12-18T05:10:33.220Z,97.04
2023-12-18T05:13:35.811Z,97.02
2023-12-18T05:16:38.409Z,96.45
2023-12-18T05:19:41.243Z,95.90
2023-12-18T05:22:44.252Z,96.79
2023-12-18T05:25:46.956Z,97.56
2023-12-18T05:28:49.614Z,97.08
2023-12-18T05:31:52.399Z,97.82
2023-12-18T05:34:55.079Z,97.57
2023-12-18T05:37:57.764Z,96.75
2023-12-18T05:41:00.533Z,96.08
2023-12-18T05:44:03.168Z,97.25
2023-12-18T05:47:05.854Z,96.83
2023-12-18T05:50:09.173Z,96.78
2023-12-18T05:53:11.835Z,97.78
2023-12-18T05:56:14.753Z,97.14
2023-12-18T05:59:17.359Z,96.20
2023-12-18T06:02:19.991Z,97.18
2023-12-18T06:05:22.610Z,96.99
2023-12-18T06:08:25.206Z,97.55
2023-12-18T06:11:27.869Z,96.54
2023-12-18T06:14:30.483Z,95.98
2023-12-18T06:17:33.834Z,96.91
2023-12-18T06:20:38.441Z,95.99
2023-12-18T06:23:44.030Z,95.70
2023-12-18T06:26:46.675Z,96.62
2023-12-18T06:29:49.405Z,96.72
2023-12-18T06:32:52.235Z,96.55
2023-12-18T06:35:55.355Z,97.36
2023-12-18T06:38:58.022Z,95.75
2023-12-18T06:42:00.706Z,96.31
2023-12-18T06:45:04.314Z,95.56
2023-12-18T06:48:07.302Z,96.09
2023-12-18T06:51:10.984Z,94.47
2023-12-18T06:54:13.813Z,95.16
2023-12-18T06:57:17.510Z,94.47
2023-12-18T07:00:28.850Z,95.26
2023-12-18T07:03:38.184Z,95.71
2023-12-18T07:06:41.028Z,94.87
2023-12-18T07:09:43.814Z,93.81
2023-12-18T07:12:47.083Z,93.78
2023-12-18T07:15:51.036Z,93.25
2023-12-18T07:18:54.863Z,93.70
2023-12-18T07:21:57.629Z,93.24
2023-12-18T07:25:00.391Z,92.20
2023-12-18T07:28:03.282Z,93.32
2023-12-18T07:31:06.022Z,92.13
2023-12-18T07:34:08.967Z,91.41
2023-12-18T07:37:11.694Z,91.91
2023-12-18T07:40:14.433Z,92.82
2023-12-18T07:43:17.233Z,91.25
2023-12-18T07:46:20.538Z,90.80
2023-12-18T07:49:23.992Z,91.10
2023-12-18T07:52:26.768Z,91.34
2023-12-18T07:55:29.453Z,91.04
2023-12-18T07:58:32.158Z,90.53
2023-12-18T08:01:35.784Z,89.35
2023-12-18T08:04:38.600Z,88.71
2023-12-18T08:07:41.366Z,89.91
2023-12-18T08:10:44.320Z,90.92
2023-12-18T08:13:50.747Z,89.17
2023-12-18T08:16:53.409Z,88.35
2023-12-18T08:19:56.073Z,88.16
2023-12-18T08:22:58.715Z,86.68
2023-12-18T08:26:01.332Z,87.84
2023-12-18T08:29:07.815Z,86.37
2023-12-18T08:32:11.759Z,85.72
2023-12-18T08:35:14.587Z,85.20
2023-12-18T08:38:17.244Z,86.91
2023-12-18T08:41:19.900Z,86.60
2023-12-18T08:44:23.056Z,85.47
2023-12-18T08:47:25.905Z,83.69
2023-12-18T08:50:28.671Z,82.82
2023-12-18T08:53:31.710Z,82.29
2023-12-18T08:56:34.440Z,81.83
2023-12-18T08:59:37.233Z,81.80
2023-12-18T09:02:40.109Z,83.81
2023-12-18T09:08:46.143Z,82.95
2023-12-18T09:11:48.824Z,79.82
2023-12-18T09:14:51.518Z,80.78
2023-12-18T09:17:54.212Z,78.81
2023-12-18T09:20:57.296Z,79.22
2023-12-18T09:24:00.019Z,76.21
2023-12-18T09:27:02.799Z,79.81
2023-12-18T09:30:07.927Z,76.32
2023-12-18T09:33:12.239Z,76.85
2023-12-18T09:36:15.656Z,77.27
2023-12-18T09:39:20.996Z,76.67
2023-12-18T09:42:23.711Z,76.89
2023-12-18T09:45:27.063Z,75.08
2023-12-18T09:48:30.043Z,75.66
2023-12-18T09:51:38.031Z,74.92
2023-12-18T09:54:44.356Z,76.77
2023-12-18T09:57:50.281Z,74.61
2023-12-18T10:00:53.898Z,75.59
2023-12-18T10:03:56.902Z,74.33
2023-12-18T10:07:00.556Z,73.77
2023-12-18T10:10:03.520Z,73.33
2023-12-18T10:13:08.541Z,72.76
2023-12-18T10:16:12.195Z,71.75
2023-12-18T10:19:14.910Z,71.83
2023-12-18T10:22:17.964Z,71.17
2023-12-18T10:25:21.644Z,70.59
2023-12-18T10:28:24.295Z,68.94
2023-12-18T10:31:27.126Z,67.35
2023-12-18T10:34:29.974Z,68.15
2023-12-18T10:37:34.550Z,67.71
2023-12-18T10:40:38.533Z,65.97
2023-12-18T10:43:41.868Z,64.98
2023-12-18T10:46:49.058Z,63.70
2023-12-18T10:49:54.653Z,68.24
2023-12-18T10:53:00.115Z,67.87
2023-12-18T10:56:05.371Z,62.19
2023-12-18T10:59:09.639Z,63.04
2023-12-18T11:02:13.773Z,62.44
2023-12-18T11:05:18.569Z,61.58
2023-12-18T11:08:21.854Z,62.44
2023-12-18T11:11:26.136Z,61.45
2023-12-18T11:15:03.708Z,60.64
2023-12-18T11:18:09.515Z,60.63
2023-12-18T11:21:12.333Z,61.04
2023-12-18T11:24:15.096Z,61.67
2023-12-18T11:27:18.932Z,61.85
2023-12-18T11:30:25.413Z,61.84
2023-12-18T11:33:36.064Z,60.92
2023-12-18T11:36:45.288Z,59.56
2023-12-18T11:39:48.066Z,58.97
2023-12-18T11:42:51.037Z,59.34
2023-12-18T11:46:09.861Z,58.06
2023-12-18T11:49:18.818Z,58.62
2023-12-18T11:52:21.815Z,59.13
2023-12-18T11:55:48.602Z,58.75
2023-12-18T11:58:51.567Z,57.11
2023-12-18T12:01:54.531Z,58.20
2023-12-18T12:04:58.026Z,57.05
2023-12-18T12:08:02.283Z,58.09
2023-12-18T12:11:04.928Z,58.82
2023-12-18T12:14:07.687Z,57.18
2023-12-18T12:17:10.318Z,58.56
2023-12-18T12:20:15.959Z,59.29
2023-12-18T12:23:18.792Z,60.04
2023-12-18T12:26:24.123Z,58.03
2023-12-18T12:29:27.824Z,58.53
2023-12-18T12:32:30.641Z,63.89
2023-12-18T12:35:33.656Z,65.48
2023-12-18T12:38:37.901Z,66.53
2023-12-18T12:41:40.761Z,58.70
2023-12-18T12:44:43.424Z,57.59
2023-12-18T12:47:47.701Z,57.37
2023-12-18T12:50:51.695Z,57.50
2023-12-18T12:53:54.321Z,57.02
2023-12-18T12:56:57.023Z,56.71
2023-12-18T12:59:59.979Z,55.72
2023-12-18T13:03:03.389Z,56.71
2023-12-18T13:06:06.589Z,56.82
2023-12-18T13:09:10.802Z,57.29
2023-12-18T13:12:16.688Z,57.36
2023-12-18T13:15:19.549Z,58.34
2023-12-18T13:18:23.805Z,60.17
2023-12-18T13:21:26.648Z,60.49
2023-12-18T13:24:30.354Z,60.45
2023-12-18T13:27:33.060Z,61.58
2023-12-18T13:30:36.302Z,62.04
2023-12-18T13:33:39.117Z,62.43
2023-12-18T13:36:42.015Z,62.46
2023-12-18T13:39:44.914Z,62.96
2023-12-18T13:42:47.861Z,64.28
2023-12-18T13:45:50.640Z,66.20
2023-12-18T13:48:53.411Z,66.29
2023-12-18T13:51:56.213Z,67.38
2023-12-18T13:54:58.896Z,67.67
2023-12-18T13:58:01.597Z,69.13
2023-12-18T14:01:05.286Z,69.66
2023-12-18T14:04:08.338Z,69.44
2023-12-18T14:07:11.181Z,67.56
2023-12-18T14:10:13.935Z,68.92
2023-12-18T14:13:16.678Z,69.90
2023-12-18T14:16:19.400Z,71.19
2023-12-18T14:19:22.120Z,71.87
2023-12-18T14:22:25.135Z,72.13
2023-12-18T14:25:27.878Z,72.43
2023-12-18T14:28:32.284Z,74.02
2023-12-18T14:31:35.336Z,72.82
2023-12-18T14:34:38.213Z,73.60
2023-12-18T14:37:40.958Z,74.44
2023-12-18T14:40:43.668Z,74.94
2023-12-18T14:43:46.921Z,76.23
2023-12-18T14:46:49.672Z,76.14
2023-12-18T14:49:52.440Z,77.76
2023-12-18T14:52:57.165Z,77.78
2023-12-18T14:55:59.837Z,78.86
2023-12-18T14:59:02.538Z,78.28
2023-12-18T15:02:05.224Z,78.17
2023-12-18T15:05:08.071Z,77.83
2023-12-18T15:08:10.732Z,77.27
2023-12-18T15:11:13.427Z,77.46
2023-12-18T15:14:16.026Z,77.41
2023-12-18T15:17:18.762Z,77.84
2023-12-18T15:20:21.598Z,76.60
2023-12-18T15:23:24.201Z,76.56
2023-12-18T15:26:26.815Z,76.77
2023-12-18T15:29:31.194Z,77.37
2023-12-18T15:32:33.850Z,77.33
2023-12-18T15:35:36.808Z,77.10
2023-12-18T15:38:39.849Z,77.50
2023-12-18T15:41:42.501Z,78.19
2023-12-18T15:44:46.947Z,79.29
2023-12-18T15:47:49.718Z,80.31
2023-12-18T15:50:52.490Z,79.80
2023-12-18T15:53:55.944Z,80.03
2023-12-18T15:56:58.848Z,79.56
2023-12-18T16:00:02.960Z,80.27
2023-12-18T16:03:12.475Z,79.45
2023-12-18T16:06:15.386Z,79.83
2023-12-18T16:09:18.018Z,80.72
2023-12-18T16:12:20.951Z,81.38
2023-12-18T16:15:23.712Z,81.24
2023-12-18T16:18:26.551Z,82.18
2023-12-18T16:21:30.644Z,82.19
2023-12-18T16:24:34.200Z,81.79
2023-12-18T16:27:36.864Z,82.54
2023-12-18T16:30:45.037Z,82.65
2023-12-18T16:33:52.672Z,83.52
2023-12-18T16:36:55.409Z,83.38
2023-12-18T16:39:58.853Z,82.93
2023-12-18T16:43:01.656Z,83.23
2023-12-18T16:46:05.102Z,83.75
2023-12-18T16:49:07.806Z,84.25
2023-12-18T16:52:10.543Z,84.67
2023-12-18T16:55:13.608Z,85.15
2023-12-18T16:58:16.328Z,86.19
2023-12-18T17:01:21.318Z,86.33
2023-12-18T17:04:24.193Z,85.82
2023-12-18T17:07:27.225Z,85.60
2023-12-18T17:10:30.264Z,85.32
2023-12-18T17:13:32.914Z,84.09
2023-12-18T17:16:36.093Z,83.92
2023-12-18T17:19:38.830Z,82.83
2023-12-18T17:22:42.051Z,81.69
2023-12-18T17:25:45.087Z,81.91
2023-12-18T17:28:47.731Z,81.92
2023-12-18T17:31:50.521Z,82.62
2023-12-18T17:34:53.191Z,82.74
2023-12-18T17:37:55.833Z,83.29
2023-12-18T17:40:58.475Z,84.14
2023-12-18T17:44:01.169Z,84.28
2023-12-18T17:47:05.216Z,84.42
2023-12-18T17:50:08.412Z,84.13
2023-12-18T17:53:11.203Z,83.91
2023-12-18T17:56:13.953Z,84.53
2023-12-18T17:59:16.608Z,84.77
2023-12-18T18:02:19.288Z,85.02
2023-12-18T18:05:22.030Z,84.78
2023-12-18T18:08:24.752Z,85.31
2023-12-18T18:11:27.436Z,85.50
2023-12-18T18:14:30.195Z,85.11
2023-12-18T18:17:33.073Z,84.79
2023-12-18T18:20:36.107Z,84.48
2023-12-18T18:23:38.765Z,84.62
2023-12-18T18:26:41.782Z,86.12
2023-12-18T18:29:49.854Z,86.39
2023-12-18T18:32:53.738Z,87.08
2023-12-18T18:35:56.567Z,86.79
2023-12-18T18:38:59.354Z,86.90
2023-12-18T18:42:02.528Z,85.96
2023-12-18T18:45:05.633Z,86.41
2023-12-18T18:48:08.818Z,87.37
2023-12-18T18:51:11.613Z,87.58
2023-12-18T18:54:14.415Z,88.05
2023-12-18T18:57:17.400Z,88.57
2023-12-18T19:00:21.967Z,88.32
2023-12-18T19:03:24.786Z,88.20
2023-12-18T19:06:27.864Z,88.02
2023-12-18T19:09:30.830Z,88.23
2023-12-18T19:12:35.900Z,88.37
2023-12-18T19:15:38.854Z,88.69
2023-12-18T19:18:41.999Z,88.11
2023-12-18T19:21:44.763Z,87.83
2023-12-18T19:24:47.617Z,87.54
2023-12-18T19:27:50.525Z,87.95
2023-12-18T19:30:54.106Z,87.90
2023-12-18T19:33:57.023Z,87.17
2023-12-18T19:36:59.889Z,87.03
2023-12-18T19:40:02.854Z,86.99
2023-12-18T19:43:07.323Z,87.30
2023-12-18T19:46:10.451Z,88.25
2023-12-18T19:49:14.434Z,89.01
2023-12-18T19:52:20.250Z,88.41
2023-12-18T19:55:22.912Z,87.77
2023-12-18T19:58:27.821Z,87.60
2023-12-18T20:01:30.554Z,87.84
2023-12-18T20:04:33.234Z,87.77
2023-12-18T20:07:36.144Z,88.43
2023-12-18T20:10:39.382Z,88.30
2023-12-18T20:13:42.009Z,88.01
2023-12-18T20:16:44.904Z,88.47
2023-12-18T20:19:47.694Z,88.69
2023-12-18T20:22:50.419Z,88.82
2023-12-18T20:25:53.126Z,89.59
2023-12-18T20:28:55.773Z,89.63
2023-12-18T20:31:58.466Z,89.31
2023-12-18T20:35:06.343Z,90.18
2023-12-18T20:38:11.214Z,90.45
2023-12-18T20:41:14.052Z,90.92
2023-12-18T20:44:18.573Z,91.54
2023-12-18T20:47:21.212Z,91.12
2023-12-18T20:50:23.941Z,90.95
2023-12-18T20:53:26.537Z,90.94
2023-12-18T20:56:29.257Z,90.20
2023-12-18T20:59:32.166Z,89.75
2023-12-18T21:02:34.846Z,89.12
2023-12-18T21:05:37.587Z,88.83
2023-12-18T21:08:40.326Z,89.33
2023-12-18T21:11:43.206Z,89.99
2023-12-18T21:14:45.890Z,90.25
2023-12-18T21:17:48.689Z,90.65
2023-12-18T21:20:51.365Z,90.78
2023-12-18T21:23:57.079Z,90.87
2023-12-18T21:27:00.140Z,91.16
2023-12-18T21:30:02.782Z,91.34
2023-12-18T21:33:05.634Z,91.00
2023-12-18T21:36:11.055Z,90.24
2023-12-18T21:39:13.877Z,89.04
2023-12-18T21:42:16.505Z,88.52
2023-12-18T21:45:20.481Z,88.56
2023-12-18T21:48:23.379Z,89.13
2023-12-18T21:51:31.057Z,89.87
2023-12-18T21:54:40.368Z,90.65
2023-12-18T21:57:43.163Z,91.45
2023-12-18T22:00:46.021Z,92.32
2023-12-18T22:03:48.784Z,92.56
2023-12-18T22:06:51.768Z,91.38
2023-12-18T22:09:56.797Z,91.90
2023-12-18T22:13:00.133Z,92.17
2023-12-18T22:16:03.002Z,91.74
2023-12-18T22:19:05.725Z,91.78
2023-12-18T22:22:08.388Z,91.22
2023-12-18T22:25:11.229Z,90.94
2023-12-18T22:28:13.905Z,90.84
2023-12-18T22:31:16.823Z,90.41
2023-12-18T22:34:19.660Z,90.14
2023-12-18T22:37:22.415Z,90.56
2023-12-18T22:40:25.058Z,91.12
2023-12-18T22:43:27.693Z,91.20
2023-12-18T22:46:30.350Z,90.90
2023-12-18T22:49:33.184Z,91.48
2023-12-18T22:52:35.926Z,91.52
2023-12-18T22:55:38.537Z,91.91
2023-12-18T22:58:41.202Z,92.00
2023-12-18T23:01:43.842Z,92.10
2023-12-18T23:04:46.680Z,91.97
2023-12-18T23:07:50.247Z,91.73
2023-12-18T23:10:53.624Z,92.13
2023-12-18T23:13:56.318Z,92.17
2023-12-18T23:16:58.957Z,91.78
2023-12-18T23:20:01.949Z,91.78
2023-12-18T23:23:04.691Z,91.51
2023-12-18T23:26:09.849Z,92.60
2023-12-18T23:29:12.593Z,92.99
2023-12-18T23:32:15.538Z,92.36
2023-12-18T23:35:18.330Z,92.51
2023-12-18T23:38:21.182Z,92.04
2023-12-18T23:41:23.916Z,92.09
2023-12-18T23:44:26.720Z,92.01
2023-12-18T23:47:29.425Z,92.22
2023-12-18T23:50:32.131Z,92.09
2023-12-18T23:53:34.873Z,91.68
2023-12-18T23:56:40.458Z,91.88
2023-12-18T23:59:43.681Z,91.59
